createdAt,value
2022-08-28T00:02:35.869Z,25.41
2022-08-28T00:07:35.784Z,25.28
2022-08-28T00:12:35.805Z,26.32
2022-08-28T00:17:35.742Z,26.91
2022-08-28T00:22:35.785Z,26.64
2022-08-28T00:27:35.751Z,26.60
2022-08-28T00:32:35.806Z,26.61
2022-08-28T00:37:35.860Z,25.19
2022-08-28T00:42:35.780Z,24.71
2022-08-28T00:47:35.748Z,24.42
2022-08-28T00:52:35.815Z,24.40
2022-08-28T00:57:35.762Z,24.34
2022-08-28T01:02:35.862Z,24.35
2022-08-28T01:07:35.846Z,24.11
2022-08-28T01:12:35.816Z,24.06
2022-08-28T01:17:35.776Z,24.02
2022-08-28T01:22:35.811Z,23.96
2022-08-28T01:27:35.772Z,23.87
2022-08-28T01:32:35.815Z,26.55
2022-08-28T01:37:35.814Z,26.63
2022-08-28T01:42:35.833Z,26.54
2022-08-28T01:47:35.782Z,25.14
2022-08-28T01:52:35.835Z,24.03
2022-08-28T01:57:35.799Z,23.66
2022-08-28T02:02:35.829Z,23.62
2022-08-28T02:07:35.836Z,23.30
2022-08-28T02:12:35.833Z,23.21
2022-08-28T02:17:35.808Z,23.10
2022-08-28T02:22:35.831Z,23.09
2022-08-28T02:27:35.806Z,22.95
2022-08-28T02:32:35.854Z,22.83
2022-08-28T02:37:35.835Z,22.70
2022-08-28T02:42:35.857Z,22.64
2022-08-28T02:47:35.831Z,22.71
2022-08-28T02:52:35.851Z,22.97
2022-08-28T02:57:35.830Z,23.25
2022-08-28T03:02:35.893Z,22.99
2022-08-28T03:07:35.872Z,22.96
2022-08-28T03:12:35.880Z,23.11
2022-08-28T03:17:35.834Z,23.25
2022-08-28T03:22:35.918Z,23.24
2022-08-28T03:27:35.840Z,22.93
2022-08-28T03:32:35.875Z,22.80
2022-08-28T03:37:35.878Z,25.92
2022-08-28T03:42:35.885Z,26.24
2022-08-28T03:47:35.884Z,24.13
2022-08-28T03:52:35.917Z,23.27
2022-08-28T03:57:35.903Z,22.92
2022-08-28T04:02:36.055Z,22.82
2022-08-28T04:07:35.881Z,22.62
2022-08-28T04:12:35.907Z,22.75
2022-08-28T04:17:35.873Z,22.68
2022-08-28T04:22:35.925Z,22.76
2022-08-28T04:27:35.873Z,22.71
2022-08-28T04:32:35.912Z,23.51
2022-08-28T04:37:35.940Z,25.75
2022-08-28T04:42:35.924Z,24.84
2022-08-28T04:47:35.906Z,23.41
2022-08-28T04:52:35.944Z,23.17
2022-08-28T04:57:36.509Z,23.06
2022-08-28T05:02:36.014Z,23.11
2022-08-28T05:07:35.941Z,23.09
2022-08-28T05:12:35.926Z,23.08
2022-08-28T05:17:35.910Z,23.10
2022-08-28T05:22:35.958Z,23.50
2022-08-28T05:27:35.912Z,24.01
2022-08-28T05:32:35.972Z,24.58
2022-08-28T05:37:36.083Z,26.79
2022-08-28T05:42:38.857Z,25.78
2022-08-28T05:47:35.931Z,24.82
2022-08-28T05:52:35.984Z,24.68
2022-08-28T05:57:35.919Z,24.99
2022-08-28T06:02:35.980Z,24.96
2022-08-28T06:07:35.986Z,24.66
2022-08-28T06:12:36.030Z,24.71
2022-08-28T06:17:35.952Z,24.70
2022-08-28T06:22:35.988Z,24.65
2022-08-28T06:27:35.960Z,25.05
2022-08-28T06:32:35.974Z,25.28
2022-08-28T06:37:35.996Z,25.77
2022-08-28T06:42:36.033Z,25.32
2022-08-28T06:47:35.966Z,26.08
2022-08-28T06:52:36.096Z,25.91
2022-08-28T06:57:35.964Z,26.40
2022-08-28T07:02:36.020Z,26.17
2022-08-28T07:07:36.009Z,26.70
2022-08-28T07:12:36.032Z,26.67
2022-08-28T07:17:35.969Z,26.89
2022-08-28T07:22:36.025Z,26.43
2022-08-28T07:27:35.986Z,26.44
2022-08-28T07:32:36.036Z,26.28
2022-08-28T07:37:36.081Z,26.05
2022-08-28T07:42:36.108Z,26.52
2022-08-28T07:47:36.000Z,26.43
2022-08-28T07:52:36.077Z,26.76
2022-08-28T07:57:36.001Z,26.86
2022-08-28T08:02:36.055Z,26.81
2022-08-28T08:07:36.047Z,27.11
2022-08-28T08:12:36.145Z,29.34
2022-08-28T08:17:36.013Z,30.83
2022-08-28T08:22:36.050Z,31.09
2022-08-28T08:27:39.850Z,30.82
2022-08-28T08:32:36.062Z,28.89
2022-08-28T08:37:36.049Z,28.25
2022-08-28T08:42:36.044Z,27.90
2022-08-28T08:47:36.011Z,29.34
2022-08-28T08:52:36.058Z,30.17
2022-08-28T08:57:36.054Z,30.98
2022-08-28T09:02:36.072Z,31.11
2022-08-28T09:07:36.060Z,31.28
2022-08-28T09:12:36.077Z,31.42
2022-08-28T09:17:36.039Z,31.21
2022-08-28T09:22:36.091Z,31.13
2022-08-28T09:27:36.043Z,31.77
2022-08-28T09:32:36.087Z,31.58
2022-08-28T09:37:36.093Z,31.41
2022-08-28T09:42:36.103Z,30.88
2022-08-28T09:47:36.049Z,31.09
2022-08-28T09:52:36.112Z,31.05
2022-08-28T09:57:36.078Z,31.53
2022-08-28T10:02:36.108Z,31.22
2022-08-28T10:07:36.113Z,31.16
2022-08-28T10:12:36.107Z,30.84
2022-08-28T10:22:36.136Z,30.55
2022-08-28T10:27:36.074Z,30.14
2022-08-28T10:32:36.133Z,30.19
2022-08-28T10:37:36.141Z,30.09
2022-08-28T10:42:36.557Z,30.10
2022-08-28T10:47:36.137Z,30.08
2022-08-28T10:57:39.211Z,30.10
2022-08-28T11:02:36.273Z,30.26
2022-08-28T11:07:36.143Z,30.20
2022-08-28T11:12:36.238Z,29.45
2022-08-28T11:17:36.179Z,29.31
2022-08-28T11:22:36.125Z,29.89
2022-08-28T11:27:36.194Z,30.10
2022-08-28T11:32:36.115Z,29.65
2022-08-28T11:37:36.168Z,29.79
2022-08-28T11:42:36.186Z,30.03
2022-08-28T11:47:36.233Z,29.75
2022-08-28T11:52:36.180Z,29.47
2022-08-28T11:57:36.173Z,29.87
2022-08-28T12:02:36.345Z,30.07
2022-08-28T12:07:36.182Z,29.60
2022-08-28T12:12:36.200Z,29.91
2022-08-28T12:17:36.169Z,29.73
2022-08-28T12:22:36.133Z,29.93
2022-08-28T12:27:36.268Z,29.70
2022-08-28T12:32:36.191Z,29.20
2022-08-28T12:37:39.761Z,29.03
2022-08-28T12:42:36.198Z,28.95
2022-08-28T12:47:36.229Z,28.75
2022-08-28T12:52:36.155Z,28.73
2022-08-28T12:57:36.217Z,28.89
2022-08-28T13:02:36.280Z,28.99
2022-08-28T13:12:54.854Z,28.95
2022-08-28T13:17:36.179Z,29.25
2022-08-28T13:22:36.206Z,29.05
2022-08-28T13:27:36.237Z,29.12
2022-08-28T13:32:36.228Z,29.15
2022-08-28T13:37:36.209Z,28.83
2022-08-28T13:42:36.241Z,28.42
2022-08-28T13:47:36.194Z,28.58
2022-08-28T13:52:36.250Z,28.87
2022-08-28T13:57:36.269Z,28.73
2022-08-28T14:02:36.324Z,28.52
2022-08-28T14:07:36.204Z,28.38
2022-08-28T14:12:36.245Z,28.34
2022-08-28T14:17:36.231Z,28.16
2022-08-28T14:22:36.243Z,28.32
2022-08-28T14:27:36.242Z,28.45
2022-08-28T14:32:36.256Z,28.68
2022-08-28T14:37:36.219Z,28.22
2022-08-28T14:42:36.248Z,28.36
2022-08-28T14:47:36.229Z,28.09
2022-08-28T14:52:36.246Z,28.17
2022-08-28T14:57:36.277Z,28.25
2022-08-28T15:02:36.285Z,28.09
2022-08-28T15:07:36.244Z,27.93
2022-08-28T15:12:36.281Z,28.18
2022-08-28T15:17:36.243Z,28.35
2022-08-28T15:22:36.329Z,28.32
2022-08-28T15:27:36.294Z,28.11
2022-08-28T15:32:36.303Z,27.87
2022-08-28T15:37:36.260Z,28.05
2022-08-28T15:42:36.403Z,28.15
2022-08-28T15:47:36.256Z,28.08
2022-08-28T15:52:36.370Z,27.95
2022-08-28T15:57:36.310Z,27.85
2022-08-28T16:02:36.316Z,27.86
2022-08-28T16:12:36.314Z,27.70
2022-08-28T16:17:36.280Z,27.72
2022-08-28T16:22:36.356Z,27.63
2022-08-28T16:27:36.341Z,27.70
2022-08-28T16:32:36.329Z,27.60
2022-08-28T16:37:39.938Z,27.52
2022-08-28T16:42:36.347Z,27.53
2022-08-28T16:47:36.279Z,27.44
2022-08-28T16:52:36.323Z,27.42
2022-08-28T16:57:36.355Z,27.39
2022-08-28T17:02:36.421Z,27.43
2022-08-28T17:07:36.368Z,27.35
2022-08-28T17:12:36.403Z,27.23
2022-08-28T17:17:36.362Z,27.21
2022-08-28T17:22:36.315Z,27.15
2022-08-28T17:27:36.479Z,27.12
2022-08-28T17:32:36.410Z,27.07
2022-08-28T17:37:36.386Z,27.01
2022-08-28T17:42:36.519Z,26.91
2022-08-28T17:47:36.379Z,26.82
2022-08-28T17:52:36.461Z,26.65
2022-08-28T17:57:36.518Z,26.60
2022-08-28T18:02:36.497Z,26.70
2022-08-28T18:07:36.572Z,26.71
2022-08-28T18:12:36.533Z,26.69
2022-08-28T18:17:36.594Z,26.74
2022-08-28T18:22:36.556Z,26.71
2022-08-28T18:27:36.595Z,26.70
2022-08-28T18:32:36.521Z,26.67
2022-08-28T18:37:36.600Z,26.68
2022-08-28T18:42:36.589Z,26.49
2022-08-28T18:47:36.570Z,26.51
2022-08-28T18:52:36.544Z,26.32
2022-08-28T18:57:36.658Z,26.18
2022-08-28T19:02:41.228Z,26.21
2022-08-28T19:07:36.621Z,26.30
2022-08-28T19:12:36.671Z,26.17
2022-08-28T19:17:36.594Z,26.04
2022-08-28T19:22:36.578Z,26.05
2022-08-28T19:27:36.570Z,25.88
2022-08-28T19:32:36.589Z,25.77
2022-08-28T19:37:42.110Z,25.73
2022-08-28T19:42:36.638Z,25.75
2022-08-28T19:47:36.620Z,25.47
2022-08-28T19:52:36.602Z,25.58
2022-08-28T19:57:36.691Z,25.53
2022-08-28T20:02:36.687Z,25.50
2022-08-28T20:12:36.691Z,25.19
2022-08-28T20:17:43.689Z,25.16
2022-08-28T20:22:36.654Z,25.06
2022-08-28T20:27:36.454Z,24.96
2022-08-28T20:32:36.455Z,24.84
2022-08-28T20:37:45.449Z,24.77
2022-08-28T20:42:36.493Z,24.66
2022-08-28T20:47:36.429Z,24.61
2022-08-28T20:52:36.464Z,24.51
2022-08-28T20:57:36.463Z,24.45
2022-08-28T21:02:36.462Z,24.36
2022-08-28T21:07:36.443Z,24.29
2022-08-28T21:12:36.515Z,24.27
2022-08-28T21:17:36.448Z,24.08
2022-08-28T21:22:36.480Z,24.10
2022-08-28T21:27:36.487Z,24.14
2022-08-28T21:32:36.487Z,26.77
2022-08-28T21:37:36.457Z,26.50
2022-08-28T21:42:36.479Z,26.65
2022-08-28T21:47:36.461Z,26.36
2022-08-28T21:52:36.485Z,26.28
2022-08-28T21:57:36.520Z,26.74
2022-08-28T22:02:36.684Z,25.55
2022-08-28T22:07:36.470Z,25.71
2022-08-28T22:12:36.594Z,25.50
2022-08-28T22:17:36.479Z,25.26
2022-08-28T22:22:36.531Z,25.82
2022-08-28T22:27:36.530Z,25.90
2022-08-28T22:32:36.513Z,26.23
2022-08-28T22:37:36.501Z,26.22
2022-08-28T22:42:36.533Z,26.26
2022-08-28T22:47:36.498Z,25.89
2022-08-28T22:52:36.559Z,25.75
2022-08-28T22:57:36.521Z,25.53
2022-08-28T23:02:36.597Z,25.78
2022-08-28T23:07:36.515Z,25.70
2022-08-28T23:12:36.550Z,25.64
2022-08-28T23:17:36.519Z,25.31
2022-08-28T23:22:36.559Z,23.96
2022-08-28T23:27:36.887Z,23.35
2022-08-28T23:32:36.543Z,23.15
2022-08-28T23:37:36.523Z,23.10
2022-08-28T23:42:36.584Z,22.98
2022-08-28T23:47:40.386Z,24.45
2022-08-28T23:52:36.549Z,24.64
2022-08-28T23:57:36.570Z,24.77
